Time;durP1;ratioP1;P1;durP2;ratioP2;P2;SDS_P1;SDS_P2;PMS_P1;PMS_P2;Temp;Humidity;BMP_temperature;BMP_pressure;BME280_temperature;BME280_humidity;BME280_pressure;Samples;Min_cycle;Max_cycle;Signal;HPM_P1;HPM_P2
2021/01/29 00:02:02;;;;;;;18.88;17.58;;;4.00;88.70;;;;;;5148374;28;20042;-72
2021/01/29 00:04:34;;;;;;;18.63;17.23;;;4.00;88.80;;;;;;5178725;28;20467;-72
2021/01/29 00:07:07;;;;;;;18.08;16.80;;;3.90;87.50;;;;;;5179832;28;20046;-71
2021/01/29 00:09:39;;;;;;;19.38;17.88;;;3.90;90.80;;;;;;5150992;28;20046;-70
2021/01/29 00:12:10;;;;;;;18.90;17.50;;;3.90;90.70;;;;;;5151708;28;20101;-71
2021/01/29 00:14:42;;;;;;;18.15;16.85;;;3.80;90.50;;;;;;5182847;28;20038;-72
2021/01/29 00:17:13;;;;;;;18.85;17.38;;;3.90;91.70;;;;;;5182337;28;20044;-72
2021/01/29 00:19:45;;;;;;;19.27;17.85;;;3.90;91.10;;;;;;5184597;28;20129;-71
2021/01/29 00:22:16;;;;;;;19.13;17.73;;;3.90;91.00;;;;;;5165798;28;20042;-72
2021/01/29 00:24:48;;;;;;;18.85;17.55;;;3.80;90.70;;;;;;5152700;28;20129;-71
2021/01/29 00:27:20;;;;;;;19.67;18.27;;;3.90;92.10;;;;;;5151027;28;20098;-71
2021/01/29 00:29:51;;;;;;;19.55;18.15;;;3.90;91.90;;;;;;5184043;28;20070;-72
2021/01/29 00:32:23;;;;;;;18.70;17.40;;;3.90;91.10;;;;;;5150735;28;20244;-71
2021/01/29 00:34:55;;;;;;;19.25;17.85;;;3.90;90.40;;;;;;5157749;28;20107;-72
2021/01/29 00:37:26;;;;;;;19.38;18.00;;;3.80;91.30;;;;;;5155605;28;20053;-72
2021/01/29 00:39:58;;;;;;;18.77;17.48;;;3.90;91.10;;;;;;5178369;28;20077;-70
2021/01/29 00:42:29;;;;;;;19.60;18.20;;;3.90;90.60;;;;;;5186123;28;20050;-71
2021/01/29 00:45:03;;;;;;;19.50;18.10;;;3.90;90.50;;;;;;5185879;28;20046;-70
2021/01/29 00:47:35;;;;;;;19.05;17.75;;;3.80;90.20;;;;;;5153902;28;20340;-70
2021/01/29 00:50:08;;;;;;;19.20;17.80;;;3.80;91.40;;;;;;5153471;28;20042;-71
2021/01/29 00:52:39;;;;;;;19.35;17.95;;;3.80;92.00;;;;;;5156287;28;20450;-72
2021/01/29 00:55:12;;;;;;;18.73;17.42;;;3.80;91.70;;;;;;5185868;28;20046;-71
2021/01/29 00:57:55;;;;;;;19.35;17.90;;;3.80;92.00;;;;;;5186811;28;20046;-73
2021/01/29 01:00:45;;;;;;;19.00;17.70;;;3.90;92.20;;;;;;5184938;28;20176;-71
2021/01/29 01:03:25;;;;;;;19.40;18.00;;;3.90;91.90;;;;;;5162841;28;20053;-70
2021/01/29 01:05:57;;;;;;;19.30;17.90;;;3.90;91.90;;;;;;5176000;28;20073;-71
2021/01/29 01:08:43;;;;;;;19.50;18.10;;;3.90;92.10;;;;;;5166600;28;20049;-71
2021/01/29 01:11:37;;;;;;;19.58;18.17;;;4.00;92.20;;;;;;5181315;28;20567;-72
2021/01/29 01:14:41;;;;;;;20.02;18.63;;;4.00;90.60;;;;;;5136357;28;20046;-71
2021/01/29 01:17:29;;;;;;;19.65;18.25;;;4.00;92.10;;;;;;5191203;28;20769;-71
2021/01/29 01:20:11;;;;;;;20.50;19.00;;;4.10;91.40;;;;;;5158550;28;20149;-70
2021/01/29 01:22:43;;;;;;;19.77;18.38;;;4.00;91.10;;;;;;5157210;28;20049;-71
2021/01/29 01:25:25;;;;;;;19.40;18.00;;;4.00;91.10;;;;;;5188503;28;21317;-71
2021/01/29 01:27:58;;;;;;;20.08;18.65;;;4.10;93.80;;;;;;5159169;28;20042;-74
2021/01/29 01:30:46;;;;;;;20.08;18.67;;;4.10;93.60;;;;;;5171793;28;20096;-73
2021/01/29 01:33:22;;;;;;;20.30;18.80;;;4.20;92.40;;;;;;5167378;28;20066;-71
2021/01/29 01:36:09;;;;;;;20.77;19.27;;;4.20;93.30;;;;;;5179048;28;20052;-72
2021/01/29 01:38:47;;;;;;;20.77;19.27;;;4.20;92.80;;;;;;5162972;28;20042;-72
2021/01/29 01:41:19;;;;;;;21.30;19.80;;;4.20;93.10;;;;;;5146302;28;20039;-71
2021/01/29 01:44:20;;;;;;;20.40;18.90;;;4.20;92.20;;;;;;5165281;28;20050;-71
2021/01/29 01:47:25;;;;;;;20.88;19.35;;;4.20;91.90;;;;;;5148403;28;20049;-73
2021/01/29 01:50:36;;;;;;;20.45;18.95;;;4.20;91.70;;;;;;5147620;28;20050;-72
2021/01/29 01:53:16;;;;;;;20.40;18.98;;;4.20;91.00;;;;;;5160607;28;20050;-72
2021/01/29 01:56:37;;;;;;;20.73;19.23;;;4.20;91.10;;;;;;5171149;28;20089;-72
2021/01/29 01:59:41;;;;;;;20.13;18.63;;;4.10;90.30;;;;;;5153028;28;20054;-73
2021/01/29 02:02:36;;;;;;;20.00;18.50;;;4.10;91.30;;;;;;5144142;28;20050;-72
2021/01/29 02:05:37;;;;;;;20.40;18.80;;;4.10;91.10;;;;;;5148728;28;20150;-72
2021/01/29 02:08:30;;;;;;;20.50;19.00;;;4.10;91.20;;;;;;5172975;28;20177;-74
2021/01/29 02:11:21;;;;;;;19.90;18.50;;;4.10;91.90;;;;;;5143006;28;20093;-72
2021/01/29 02:14:17;;;;;;;20.17;18.77;;;4.20;91.40;;;;;;5176062;28;20526;-73
2021/01/29 02:17:18;;;;;;;19.73;18.33;;;4.10;91.00;;;;;;5160313;28;20046;-72
2021/01/29 02:20:26;;;;;;;20.15;18.65;;;4.10;90.80;;;;;;5144628;28;20715;-71
2021/01/29 02:23:18;;;;;;;19.88;18.40;;;4.10;91.50;;;;;;5174966;28;20055;-71
2021/01/29 02:26:28;;;;;;;20.08;18.67;;;4.10;91.40;;;;;;5169239;28;20053;-71
2021/01/29 02:29:15;;;;;;;20.15;18.75;;;4.10;91.00;;;;;;5142206;28;20129;-71
2021/01/29 02:32:09;;;;;;;20.10;18.70;;;4.10;90.30;;;;;;5179793;28;20045;-72
2021/01/29 02:35:19;;;;;;;20.20;18.60;;;4.10;91.00;;;;;;5179739;28;20051;-71
2021/01/29 02:38:15;;;;;;;19.60;18.20;;;4.10;90.10;;;;;;5148224;28;20046;-72
2021/01/29 02:41:15;;;;;;;19.77;18.27;;;4.00;90.00;;;;;;5158798;28;20193;-73
2021/01/29 02:44:06;;;;;;;19.48;18.08;;;4.00;90.60;;;;;;5152928;28;20046;-72
2021/01/29 02:47:08;;;;;;;20.15;18.67;;;4.00;91.10;;;;;;5146888;28;20183;-72
2021/01/29 02:50:24;;;;;;;20.27;18.80;;;4.00;91.00;;;;;;5144615;28;20069;-72
2021/01/29 02:53:23;;;;;;;19.80;18.35;;;4.10;90.30;;;;;;5174026;28;20053;-75
2021/01/29 02:56:48;;;;;;;20.23;18.73;;;4.00;90.10;;;;;;5174341;28;20054;-70
2021/01/29 02:59:41;;;;;;;19.80;18.33;;;4.10;89.10;;;;;;5155578;28;20042;-71
2021/01/29 03:02:59;;;;;;;20.25;18.85;;;4.10;89.90;;;;;;5154132;28;20470;-73
2021/01/29 03:05:59;;;;;;;19.98;18.48;;;4.00;89.80;;;;;;5176365;28;20045;-71
2021/01/29 03:08:38;;;;;;;19.95;18.45;;;4.00;89.00;;;;;;5179489;28;20053;-74
2021/01/29 03:11:53;;;;;;;19.38;17.98;;;4.00;89.50;;;;;;5144730;28;20057;-73
2021/01/29 03:15:16;;;;;;;19.40;18.05;;;4.00;90.10;;;;;;5176614;28;20426;-71
2021/01/29 03:18:29;;;;;;;19.20;17.80;;;4.00;89.90;;;;;;5149181;28;20146;-74
2021/01/29 03:21:28;;;;;;;19.70;18.20;;;3.90;90.50;;;;;;5142191;28;20097;-71
2021/01/29 03:24:38;;;;;;;20.13;18.70;;;4.00;90.90;;;;;;5176951;28;20110;-72
2021/01/29 03:27:43;;;;;;;19.40;18.00;;;3.90;91.10;;;;;;5157322;28;20117;-72
2021/01/29 03:30:37;;;;;;;19.83;18.42;;;3.90;89.80;;;;;;5174632;28;20096;-72
2021/01/29 03:33:31;;;;;;;19.42;18.08;;;4.00;90.00;;;;;;5158675;28;20968;-72
2021/01/29 03:36:28;;;;;;;18.95;17.65;;;4.00;89.10;;;;;;5151033;28;20050;-71
2021/01/29 03:39:26;;;;;;;19.23;17.90;;;3.90;90.10;;;;;;5143893;28;20061;-72
2021/01/29 03:42:19;;;;;;;19.90;18.40;;;3.90;89.60;;;;;;5148964;28;20640;-74
2021/01/29 03:45:22;;;;;;;19.60;18.20;;;3.90;89.50;;;;;;5176240;28;20054;-71
2021/01/29 03:48:12;;;;;;;19.27;17.88;;;3.90;91.10;;;;;;5177487;28;20065;-73
2021/01/29 03:51:09;;;;;;;18.92;17.63;;;3.90;90.40;;;;;;5160132;28;20054;-70
2021/01/29 03:54:15;;;;;;;19.42;17.98;;;3.90;90.00;;;;;;5150650;28;20050;-74
2021/01/29 03:57:21;;;;;;;19.92;18.38;;;3.80;90.60;;;;;;5151118;28;20054;-72
2021/01/29 04:00:40;;;;;;;19.33;17.92;;;3.90;90.10;;;;;;5160976;28;20548;-72
2021/01/29 04:03:50;;;;;;;19.50;18.10;;;3.80;91.10;;;;;;5147815;28;20529;-73
2021/01/29 04:07:01;;;;;;;20.20;18.70;;;3.80;91.90;;;;;;5146740;28;20046;-73
2021/01/29 04:10:05;;;;;;;19.75;18.35;;;3.80;91.10;;;;;;5150297;28;20046;-73
2021/01/29 04:13:06;;;;;;;20.20;18.80;;;3.80;91.20;;;;;;5150039;28;20046;-72
2021/01/29 04:15:53;;;;;;;19.80;18.40;;;3.80;90.60;;;;;;5150399;28;20039;-74
2021/01/29 04:18:44;;;;;;;20.20;18.75;;;3.80;91.30;;;;;;5179875;28;20045;-72
2021/01/29 04:21:22;;;;;;;19.83;18.33;;;3.80;91.00;;;;;;5150507;28;20129;-74
2021/01/29 04:24:02;;;;;;;20.50;19.02;;;3.80;91.30;;;;;;5180386;28;20702;-71
2021/01/29 04:26:38;;;;;;;20.90;19.38;;;3.90;92.10;;;;;;5148322;28;20425;-74
2021/01/29 04:29:15;;;;;;;20.73;19.13;;;3.90;91.20;;;;;;5180819;28;20056;-72
2021/01/29 04:31:50;;;;;;;20.58;19.08;;;3.90;90.90;;;;;;5179084;28;20152;-72
2021/01/29 04:34:27;;;;;;;19.90;18.50;;;3.90;91.10;;;;;;5160253;28;20030;-71
2021/01/29 04:37:03;;;;;;;19.85;18.45;;;3.90;90.10;;;;;;5149414;28;20063;-71
2021/01/29 04:39:39;;;;;;;20.02;18.52;;;3.90;91.10;;;;;;5146608;28;20046;-73
2021/01/29 04:42:27;;;;;;;20.77;19.17;;;3.90;90.70;;;;;;5181980;28;20114;-72
2021/01/29 04:45:27;;;;;;;20.63;18.95;;;3.80;91.10;;;;;;5146625;28;20066;-72
2021/01/29 04:48:24;;;;;;;19.90;18.40;;;3.90;89.80;;;;;;5147788;28;20538;-72
2021/01/29 04:51:11;;;;;;;19.73;18.33;;;3.80;88.80;;;;;;5145480;28;20696;-72
2021/01/29 04:54:07;;;;;;;19.63;18.23;;;3.80;89.20;;;;;;5148012;28;20399;-72
2021/01/29 04:56:57;;;;;;;19.33;17.92;;;3.70;90.00;;;;;;5180961;28;20094;-71
2021/01/29 04:59:41;;;;;;;20.30;18.90;;;3.70;90.00;;;;;;5162564;28;20520;-73
2021/01/29 05:02:44;;;;;;;19.80;18.38;;;3.70;90.00;;;;;;5137874;28;20387;-74
2021/01/29 05:05:54;;;;;;;20.10;18.60;;;3.70;90.00;;;;;;5148626;28;20039;-72
2021/01/29 05:09:12;;;;;;;20.20;18.77;;;3.70;88.70;;;;;;5150747;28;20743;-73
2021/01/29 05:12:22;;;;;;;20.10;18.50;;;3.70;89.20;;;;;;5165160;28;20042;-72
2021/01/29 05:15:24;;;;;;;20.15;18.75;;;3.70;88.90;;;;;;5181897;28;20514;-72
2021/01/29 05:18:23;;;;;;;19.73;18.02;;;3.70;89.60;;;;;;5181637;28;20053;-74
2021/01/29 05:21:06;;;;;;;20.08;18.67;;;3.70;90.00;;;;;;5182821;28;20113;-74
2021/01/29 05:24:19;;;;;;;19.70;18.30;;;3.60;90.70;;;;;;5182892;28;20070;-74
2021/01/29 05:27:29;;;;;;;20.08;18.58;;;3.70;90.30;;;;;;5149710;28;20046;-73
2021/01/29 05:30:31;;;;;;;19.55;18.15;;;3.60;90.00;;;;;;5149121;28;20061;-73
2021/01/29 05:33:09;;;;;;;19.58;18.10;;;3.70;89.80;;;;;;5178392;28;20043;-74
2021/01/29 05:36:02;;;;;;;20.63;19.05;;;3.60;89.30;;;;;;5175616;28;20124;-73
2021/01/29 05:39:11;;;;;;;20.08;18.63;;;3.60;90.00;;;;;;5147647;28;20046;-74
2021/01/29 05:42:01;;;;;;;19.90;18.50;;;3.50;89.70;;;;;;5148993;28;20074;-74
2021/01/29 05:44:53;;;;;;;20.10;18.67;;;3.50;89.90;;;;;;5152812;28;20042;-73
2021/01/29 05:47:52;;;;;;;19.73;18.33;;;3.50;89.70;;;;;;5150069;28;20514;-71
2021/01/29 05:50:49;;;;;;;19.90;18.40;;;3.50;90.20;;;;;;5160346;28;20137;-73
2021/01/29 05:54:06;;;;;;;20.30;18.80;;;3.50;90.20;;;;;;5178339;28;20058;-73
2021/01/29 05:57:04;;;;;;;20.00;18.60;;;3.60;91.30;;;;;;5153859;28;20038;-74
2021/01/29 05:59:48;;;;;;;19.75;18.25;;;3.60;90.30;;;;;;5176499;28;20042;-73
2021/01/29 06:02:38;;;;;;;19.40;18.00;;;3.50;89.70;;;;;;5180937;28;20046;-73
2021/01/29 06:05:31;;;;;;;19.67;18.17;;;3.50;90.00;;;;;;5178743;28;20449;-74
2021/01/29 06:08:26;;;;;;;19.48;17.98;;;3.60;90.90;;;;;;5175785;28;20380;-74
2021/01/29 06:11:28;;;;;;;19.98;18.58;;;3.60;90.00;;;;;;5182123;28;20518;-75
2021/01/29 06:14:06;;;;;;;19.40;18.00;;;3.60;89.90;;;;;;5152434;28;20053;-71
2021/01/29 06:17:15;;;;;;;19.73;18.23;;;3.60;89.70;;;;;;5151976;28;20064;-71
2021/01/29 06:20:32;;;;;;;19.38;17.98;;;3.60;89.70;;;;;;5153188;28;20062;-73
2021/01/29 06:23:30;;;;;;;19.77;18.38;;;3.50;90.00;;;;;;5154535;28;20050;-73
2021/01/29 06:26:21;;;;;;;19.52;18.13;;;3.60;90.00;;;;;;5149350;28;20051;-73
2021/01/29 06:29:07;;;;;;;19.58;18.00;;;3.50;90.10;;;;;;5151661;28;20868;-71
2021/01/29 06:32:03;;;;;;;24.23;22.23;;;3.60;89.60;;;;;;5150063;28;20141;-71
2021/01/29 06:34:46;;;;;;;21.10;19.50;;;3.60;90.10;;;;;;5150672;28;20042;-72
2021/01/29 06:37:21;;;;;;;20.52;19.02;;;3.60;90.80;;;;;;5181024;28;20120;-74
2021/01/29 06:40:14;;;;;;;20.58;19.10;;;3.60;90.80;;;;;;5150313;28;20054;-71
2021/01/29 06:43:02;;;;;;;20.33;18.92;;;3.70;91.20;;;;;;5149467;28;20054;-72
2021/01/29 06:45:49;;;;;;;19.40;18.00;;;3.70;90.60;;;;;;5150303;28;20093;-74
2021/01/29 06:48:39;;;;;;;20.08;18.58;;;3.70;92.30;;;;;;5151156;28;20042;-73
2021/01/29 06:51:42;;;;;;;19.48;18.08;;;3.90;93.70;;;;;;5145308;28;20050;-74
2021/01/29 06:54:22;;;;;;;20.40;19.00;;;4.00;93.70;;;;;;5180240;28;20143;-73
2021/01/29 06:57:29;;;;;;;20.08;18.67;;;4.20;94.50;;;;;;5145864;28;20042;-73
2021/01/29 07:00:06;;;;;;;20.10;18.60;;;4.60;93.20;;;;;;5142668;28;20047;-72
2021/01/29 07:02:47;;;;;;;20.30;18.80;;;4.80;91.90;;;;;;5145101;28;20407;-71
2021/01/29 07:05:18;;;;;;;20.25;18.75;;;4.80;90.60;;;;;;5178562;28;20070;-72
2021/01/29 07:08:09;;;;;;;19.75;18.25;;;4.70;90.00;;;;;;5148414;28;20046;-70
2021/01/29 07:10:43;;;;;;;19.33;17.83;;;4.80;91.50;;;;;;5160892;28;20050;-72
2021/01/29 07:13:43;;;;;;;19.33;17.92;;;4.70;89.80;;;;;;5177658;28;20050;-70
2021/01/29 07:16:36;;;;;;;19.63;18.23;;;4.70;90.50;;;;;;5143249;28;20035;-71
2021/01/29 07:19:23;;;;;;;19.60;18.20;;;4.70;90.00;;;;;;5143661;28;20126;-72
2021/01/29 07:22:13;;;;;;;19.40;18.00;;;4.70;90.70;;;;;;5148090;28;20050;-72
2021/01/29 07:25:15;;;;;;;19.65;18.25;;;4.60;89.50;;;;;;5163880;28;20503;-71
2021/01/29 07:28:18;;;;;;;18.77;17.45;;;4.60;90.00;;;;;;5145902;28;20063;-72
2021/01/29 07:31:17;;;;;;;18.90;17.60;;;4.70;90.90;;;;;;5139022;28;20050;-71
2021/01/29 07:34:05;;;;;;;19.08;17.75;;;4.80;90.40;;;;;;5146271;28;20035;-72
2021/01/29 07:37:31;;;;;;;19.52;18.13;;;4.80;91.70;;;;;;5147542;28;20046;-69
2021/01/29 07:40:30;;;;;;;20.08;18.58;;;4.90;90.50;;;;;;5149461;28;20834;-72
2021/01/29 07:43:43;;;;;;;18.83;17.43;;;5.00;90.00;;;;;;5178654;28;20076;-72
2021/01/29 07:46:38;;;;;;;18.80;17.50;;;5.00;89.00;;;;;;5123146;28;20035;-70
2021/01/29 07:49:21;;;;;;;19.48;18.08;;;4.90;91.40;;;;;;5122745;28;20530;-70
2021/01/29 07:52:04;;;;;;;18.70;17.40;;;4.90;90.70;;;;;;5177228;28;20066;-71
2021/01/29 07:54:55;;;;;;;19.13;17.83;;;5.00;89.90;;;;;;5152114;28;20112;-71
2021/01/29 07:58:13;;;;;;;18.50;17.20;;;5.00;89.80;;;;;;5148825;28;20046;-70
2021/01/29 08:01:03;;;;;;;18.17;16.88;;;5.30;88.30;;;;;;5148710;28;20053;-70
2021/01/29 08:03:53;;;;;;;;;;;5.50;87.50;;;;;;5151644;28;20412;-71
2021/01/29 08:06:45;;;;;;;18.30;17.00;;;5.70;86.60;;;;;;5149254;28;19928;-70
2021/01/29 08:09:28;;;;;;;18.23;16.92;;;5.80;86.40;;;;;;5151456;28;20525;-72
2021/01/29 08:12:03;;;;;;;17.45;16.25;;;5.80;86.80;;;;;;5180948;28;20046;-71
2021/01/29 08:14:56;;;;;;;17.67;16.38;;;5.70;87.20;;;;;;5150550;28;20135;-72
2021/01/29 08:17:49;;;;;;;17.90;16.60;;;5.70;86.50;;;;;;5151886;28;20043;-72
2021/01/29 08:20:33;;;;;;;17.48;16.27;;;5.60;87.10;;;;;;5146765;28;20754;-73
2021/01/29 08:23:28;;;;;;;17.52;16.23;;;5.60;87.10;;;;;;5165717;28;20321;-72
2021/01/29 08:26:06;;;;;;;17.63;16.42;;;5.50;88.40;;;;;;5145157;28;20549;-71
2021/01/29 08:28:37;;;;;;;17.58;16.38;;;5.50;88.10;;;;;;5147211;28;20042;-75
2021/01/29 08:32:06;;;;;;;17.10;15.82;;;5.50;87.90;;;;;;5183444;28;20050;-71
2021/01/29 08:35:03;;;;;;;17.45;16.17;;;5.50;87.10;;;;;;5133325;28;20184;-70
2021/01/29 08:37:57;;;;;;;17.08;15.88;;;5.40;87.40;;;;;;5151604;28;20125;-73
2021/01/29 08:41:00;;;;;;;17.52;16.33;;;5.40;86.10;;;;;;5141682;28;20050;-72
2021/01/29 08:43:59;;;;;;;16.92;15.73;;;5.30;86.20;;;;;;5145730;28;20489;-73
2021/01/29 08:46:52;;;;;;;17.65;16.45;;;5.20;86.60;;;;;;5148421;28;20078;-73
2021/01/29 08:49:29;;;;;;;17.20;16.00;;;5.20;86.50;;;;;;5147395;28;20057;-71
2021/01/29 08:52:21;;;;;;;17.77;16.58;;;5.20;87.50;;;;;;5148822;28;20054;-71
2021/01/29 08:55:24;;;;;;;17.10;15.90;;;5.30;87.20;;;;;;5152231;28;20053;-70
2021/01/29 08:58:11;;;;;;;16.45;15.25;;;5.30;86.80;;;;;;5149551;28;20473;-69
2021/01/29 09:00:43;;;;;;;17.70;16.40;;;5.30;86.40;;;;;;5146213;28;20514;-72
2021/01/29 09:03:25;;;;;;;16.92;15.73;;;5.20;87.00;;;;;;5148976;28;20046;-71
2021/01/29 09:06:14;;;;;;;17.08;15.88;;;5.30;86.50;;;;;;5148671;28;20042;-71
2021/01/29 09:09:05;;;;;;;16.98;15.77;;;5.30;87.20;;;;;;5175979;28;20511;-73
2021/01/29 09:11:49;;;;;;;17.13;15.93;;;5.20;87.70;;;;;;5182310;28;20535;-72
2021/01/29 09:14:24;;;;;;;17.33;16.13;;;5.30;86.10;;;;;;5149822;28;20050;-71
2021/01/29 09:17:10;;;;;;;17.02;15.73;;;5.50;85.70;;;;;;5148581;28;20046;-71
2021/01/29 09:19:50;;;;;;;17.15;15.77;;;5.60;85.20;;;;;;5148906;28;20049;-72
2021/01/29 09:22:40;;;;;;;17.08;15.88;;;5.70;85.00;;;;;;5150013;28;20507;-70
2021/01/29 09:25:14;;;;;;;17.27;15.98;;;5.70;84.90;;;;;;5179549;28;20054;-73
2021/01/29 09:27:55;;;;;;;16.77;15.57;;;5.70;84.70;;;;;;5147017;28;20062;-71
2021/01/29 09:30:29;;;;;;;;;;;5.90;85.40;;;;;;5176477;28;20634;-70
2021/01/29 09:33:22;;;;;;;16.80;15.60;;;6.00;83.90;;;;;;5143829;28;19996;-70
2021/01/29 09:35:57;;;;;;;17.48;16.27;;;5.90;83.70;;;;;;5177012;28;20049;-69
2021/01/29 09:38:37;;;;;;;16.95;15.65;;;6.00;82.80;;;;;;5149622;28;20042;-70
2021/01/29 09:41:16;;;;;;;17.38;16.17;;;6.10;83.00;;;;;;5179487;28;20144;-70
2021/01/29 09:43:56;;;;;;;16.70;15.50;;;6.20;83.00;;;;;;5150245;28;20070;-70
2021/01/29 09:46:41;;;;;;;16.92;15.73;;;6.30;82.80;;;;;;5155013;28;20042;-70
2021/01/29 09:49:46;;;;;;;16.80;15.60;;;6.40;82.30;;;;;;5143535;28;20477;-70
2021/01/29 09:52:34;;;;;;;16.60;15.40;;;6.40;82.50;;;;;;5154462;28;20949;-70
2021/01/29 09:55:06;;;;;;;16.83;15.63;;;6.50;83.10;;;;;;5146798;28;20038;-70
2021/01/29 09:57:48;;;;;;;17.42;16.10;;;6.50;80.90;;;;;;5145255;28;20309;-72
2021/01/29 10:00:34;;;;;;;16.00;14.80;;;6.30;81.20;;;;;;5143722;28;20055;-73
2021/01/29 10:03:27;;;;;;;16.27;15.10;;;6.30;80.90;;;;;;5147226;28;20146;-74
2021/01/29 10:06:26;;;;;;;16.27;15.10;;;6.20;80.40;;;;;;5143663;28;20749;-69
2021/01/29 10:09:03;;;;;;;16.17;14.98;;;6.40;79.20;;;;;;5146777;28;20129;-70
2021/01/29 10:11:47;;;;;;;16.20;15.00;;;6.40;80.50;;;;;;5144728;28;20053;-72
2021/01/29 10:14:28;;;;;;;16.52;15.32;;;6.50;80.30;;;;;;5167877;28;20045;-71
2021/01/29 10:17:28;;;;;;;16.20;15.00;;;6.60;79.80;;;;;;5174815;28;20163;-70
2021/01/29 10:20:05;;;;;;;16.33;15.23;;;6.70;80.30;;;;;;5143461;28;20059;-71
2021/01/29 10:22:56;;;;;;;15.80;14.70;;;6.70;79.60;;;;;;5145422;28;20162;-72
2021/01/29 10:25:38;;;;;;;16.45;15.25;;;6.70;80.00;;;;;;5176819;28;20780;-71
2021/01/29 10:28:57;;;;;;;16.23;15.13;;;6.80;79.50;;;;;;5163922;28;20746;-70
2021/01/29 10:31:38;;;;;;;16.63;15.43;;;7.20;77.70;;;;;;5143047;28;20121;-72
2021/01/29 10:34:21;;;;;;;16.40;15.30;;;7.30;79.30;;;;;;5174618;28;20050;-71
2021/01/29 10:37:05;;;;;;;15.80;14.70;;;7.40;75.70;;;;;;5157318;28;20112;-70
2021/01/29 10:40:14;;;;;;;16.08;14.88;;;7.30;76.90;;;;;;5144165;28;20042;-70
2021/01/29 10:42:51;;;;;;;16.77;15.57;;;7.30;78.30;;;;;;5127293;28;20073;-71
2021/01/29 10:45:47;;;;;;;16.13;15.02;;;7.40;77.90;;;;;;5143916;28;20372;-73
2021/01/29 10:48:40;;;;;;;16.45;15.35;;;7.30;75.50;;;;;;5162131;28;20604;-69
2021/01/29 10:51:36;;;;;;;16.63;15.43;;;7.40;76.90;;;;;;5147347;28;20077;-70
2021/01/29 10:54:08;;;;;;;16.13;15.02;;;7.60;77.20;;;;;;5145875;28;20043;-69
2021/01/29 10:57:01;;;;;;;16.33;15.13;;;7.60;74.50;;;;;;5145628;28;20663;-70
2021/01/29 10:59:57;;;;;;;16.23;15.13;;;7.50;76.10;;;;;;5148620;28;20046;-68
2021/01/29 11:02:39;;;;;;;16.60;15.32;;;7.20;76.40;;;;;;5149784;28;20494;-68
2021/01/29 11:05:21;;;;;;;16.42;15.25;;;7.20;76.60;;;;;;5145646;28;20039;-68
2021/01/29 11:08:00;;;;;;;17.02;15.82;;;7.40;75.10;;;;;;5147066;28;20057;-71
2021/01/29 11:10:33;;;;;;;17.23;16.02;;;7.60;76.10;;;;;;5172458;28;20047;-69
2021/01/29 11:13:20;;;;;;;16.25;15.10;;;7.70;74.20;;;;;;5174693;28;20050;-69
2021/01/29 11:15:54;;;;;;;16.67;15.48;;;7.80;75.40;;;;;;5144731;28;20043;-70
2021/01/29 11:18:37;;;;;;;16.33;15.20;;;7.80;74.10;;;;;;5151849;28;20034;-69
2021/01/29 11:21:39;;;;;;;16.02;14.82;;;7.80;73.10;;;;;;5156873;28;20058;-68
2021/01/29 11:24:22;;;;;;;16.17;15.07;;;7.70;73.50;;;;;;5151989;28;20041;-68
2021/01/29 11:27:23;;;;;;;16.55;15.35;;;7.70;74.70;;;;;;5147820;28;20049;-68
2021/01/29 11:29:59;;;;;;;16.10;14.90;;;7.60;75.20;;;;;;5172290;28;20572;-69
2021/01/29 11:32:39;;;;;;;15.80;14.50;;;7.50;76.20;;;;;;5143103;28;20400;-69
2021/01/29 11:35:38;;;;;;;15.40;14.30;;;7.50;75.80;;;;;;5142554;28;20050;-72
2021/01/29 11:38:41;;;;;;;15.90;14.75;;;7.60;75.90;;;;;;5144424;28;20065;-71
2021/01/29 11:41:15;;;;;;;15.63;14.52;;;7.60;75.30;;;;;;5142683;28;20054;-70
2021/01/29 11:44:08;;;;;;;15.25;14.15;;;7.60;74.60;;;;;;5141553;28;20124;-71
2021/01/29 11:47:06;;;;;;;15.23;14.02;;;7.50;75.80;;;;;;5146267;28;20059;-70
2021/01/29 11:50:08;;;;;;;15.27;14.15;;;7.60;76.20;;;;;;5142261;28;20053;-71
2021/01/29 11:53:01;;;;;;;15.20;14.10;;;7.70;76.10;;;;;;5134991;28;20042;-70
2021/01/29 11:55:43;;;;;;;15.73;14.52;;;7.80;74.40;;;;;;5127300;28;20174;-73
2021/01/29 11:58:24;;;;;;;15.60;14.50;;;7.70;72.80;;;;;;5145861;28;20077;-74
2021/01/29 12:01:12;;;;;;;15.02;13.93;;;7.80;73.20;;;;;;5145025;28;20045;-71
2021/01/29 12:04:05;;;;;;;15.80;14.70;;;7.90;74.50;;;;;;5144696;28;20498;-70
2021/01/29 12:06:52;;;;;;;15.55;14.45;;;7.90;74.30;;;;;;5146069;28;20439;-73
2021/01/29 12:09:55;;;;;;;15.57;14.40;;;8.00;71.50;;;;;;5144619;28;20051;-74
2021/01/29 12:12:38;;;;;;;15.23;14.13;;;8.20;73.20;;;;;;5160921;28;20046;-70
2021/01/29 12:15:20;;;;;;;15.30;14.20;;;8.20;69.10;;;;;;5164504;28;20517;-72
2021/01/29 12:17:56;;;;;;;15.45;14.25;;;8.20;70.10;;;;;;5152195;28;20066;-71
2021/01/29 12:20:33;;;;;;;14.90;13.90;;;8.10;68.20;;;;;;5159550;28;20051;-73
2021/01/29 12:23:13;;;;;;;15.20;14.10;;;8.10;67.70;;;;;;5189752;28;20116;-71
2021/01/29 12:25:57;;;;;;;15.00;13.90;;;8.20;69.70;;;;;;5158868;28;20050;-72
2021/01/29 12:28:57;;;;;;;14.57;13.48;;;8.20;68.80;;;;;;5154767;28;20425;-70
2021/01/29 12:31:44;;;;;;;14.88;13.77;;;7.80;68.70;;;;;;5176599;28;20042;-71
2021/01/29 12:34:16;;;;;;;15.35;14.18;;;7.70;70.20;;;;;;5187700;28;20046;-72
2021/01/29 12:37:06;;;;;;;14.98;13.88;;;7.50;71.40;;;;;;5160219;28;20512;-71
2021/01/29 12:39:45;;;;;;;14.18;13.05;;;7.50;72.50;;;;;;5176150;28;20046;-70
2021/01/29 12:42:45;;;;;;;15.03;13.93;;;7.40;73.10;;;;;;5153663;28;20494;-71
2021/01/29 12:45:35;;;;;;;15.40;14.23;;;7.30;74.00;;;;;;5150416;28;20301;-71
2021/01/29 12:48:17;;;;;;;14.88;13.77;;;7.30;74.00;;;;;;5150621;28;20075;-70
2021/01/29 12:50:59;;;;;;;14.32;13.32;;;7.20;73.90;;;;;;5150316;28;20046;-71
2021/01/29 12:53:41;;;;;;;14.45;13.45;;;7.10;73.70;;;;;;5147566;28;20048;-71
2021/01/29 12:56:19;;;;;;;14.60;13.60;;;6.90;75.40;;;;;;5155444;28;20452;-70
2021/01/29 12:58:55;;;;;;;14.75;13.60;;;6.70;76.00;;;;;;5155486;28;20069;-70
2021/01/29 13:01:35;;;;;;;15.00;13.88;;;6.60;76.40;;;;;;5168567;28;20124;-70
2021/01/29 13:04:26;;;;;;;14.60;13.60;;;6.50;76.40;;;;;;5185265;28;20054;-72
2021/01/29 13:07:17;;;;;;;14.30;13.30;;;6.30;75.80;;;;;;5181609;28;20132;-70
2021/01/29 13:10:16;;;;;;;14.88;13.88;;;6.30;75.00;;;;;;5169290;28;20701;-69
2021/01/29 13:13:10;;;;;;;14.27;13.27;;;6.30;76.60;;;;;;5151216;28;20058;-73
2021/01/29 13:16:04;;;;;;;14.27;13.27;;;6.30;76.70;;;;;;5155113;28;20513;-70
2021/01/29 13:19:03;;;;;;;14.75;13.75;;;6.20;76.30;;;;;;5189205;28;20039;-70
2021/01/29 13:21:52;;;;;;;14.25;13.25;;;6.20;76.90;;;;;;5155429;28;20050;-69
2021/01/29 13:24:36;;;;;;;14.30;13.30;;;6.10;76.70;;;;;;5144714;28;20046;-68
2021/01/29 13:27:13;;;;;;;13.52;12.63;;;6.10;76.30;;;;;;5162689;28;20982;-68
2021/01/29 13:29:45;;;;;;;13.93;12.93;;;6.00;76.90;;;;;;5146126;28;20443;-68
2021/01/29 13:32:27;;;;;;;17.77;16.38;;;6.00;77.90;;;;;;5146137;28;20057;-69
2021/01/29 13:35:06;;;;;;;14.63;13.63;;;6.10;77.40;;;;;;5180011;28;20046;-68
2021/01/29 13:37:38;;;;;;;14.00;13.00;;;6.00;76.40;;;;;;5146925;28;20038;-68
2021/01/29 13:40:10;;;;;;;13.95;12.95;;;6.10;77.00;;;;;;5176951;28;20545;-69
2021/01/29 13:42:42;;;;;;;13.82;12.82;;;6.10;76.50;;;;;;5174883;28;20057;-68
2021/01/29 13:45:17;;;;;;;14.18;13.18;;;6.10;77.80;;;;;;5178388;28;20132;-69
2021/01/29 13:47:59;;;;;;;13.90;12.90;;;6.10;76.80;;;;;;5151255;28;20101;-68
2021/01/29 13:50:39;;;;;;;14.00;13.00;;;6.00;76.70;;;;;;5148953;28;20038;-71
2021/01/29 13:53:29;;;;;;;14.82;13.75;;;6.00;76.30;;;;;;5151090;28;20145;-70
2021/01/29 13:56:32;;;;;;;18.65;17.25;;;6.00;76.60;;;;;;5147591;28;20058;-72
2021/01/29 13:59:17;;;;;;;14.65;13.65;;;6.10;77.40;;;;;;5154074;28;20050;-69
2021/01/29 14:02:04;;;;;;;14.27;13.27;;;5.90;77.50;;;;;;5160303;28;20402;-71
2021/01/29 14:04:45;;;;;;;14.90;13.77;;;5.90;77.80;;;;;;5147955;28;20101;-68
2021/01/29 14:07:16;;;;;;;18.08;16.50;;;5.80;77.50;;;;;;5147566;28;20108;-68
2021/01/29 14:09:50;;;;;;;14.18;13.18;;;5.70;77.40;;;;;;5149080;28;20104;-69
2021/01/29 14:12:38;;;;;;;14.52;13.43;;;5.60;77.70;;;;;;5146986;28;20051;-69
2021/01/29 14:15:43;;;;;;;14.57;13.48;;;5.50;77.50;;;;;;5147755;28;20038;-68
2021/01/29 14:18:24;;;;;;;14.02;13.02;;;5.40;78.50;;;;;;5148505;28;20049;-71
2021/01/29 14:21:35;;;;;;;13.95;12.85;;;5.40;77.60;;;;;;5147073;28;20405;-69
2021/01/29 14:24:16;;;;;;;14.50;13.38;;;5.40;77.80;;;;;;5132756;28;20050;-71
2021/01/29 14:26:53;;;;;;;15.63;14.52;;;5.40;79.50;;;;;;5145627;28;20046;-73
2021/01/29 14:29:46;;;;;;;14.68;13.57;;;5.30;79.10;;;;;;5158896;28;20055;-70
2021/01/29 14:32:48;;;;;;;59.05;36.55;;;5.30;79.10;;;;;;5177361;28;20053;-74